Time;durP1;ratioP1;P1;durP2;ratioP2;P2;SDS_P1;SDS_P2;PMS_P1;PMS_P2;Temp;Humidity;BMP_temperature;BMP_pressure;BME280_temperature;BME280_humidity;BME280_pressure;Samples;Min_cycle;Max_cycle;Signal;HPM_P1;HPM_P2
2022/01/12 00:01:11;;;;;;;2.70;2.00;;;19.70;44.80;;;;;;5094916;28;20169;-24
2022/01/12 00:03:37;;;;;;;3.13;1.73;;;19.60;44.80;;;;;;5093972;28;20169;-21
2022/01/12 00:06:04;;;;;;;3.73;1.80;;;19.60;44.90;;;;;;5076699;28;20253;-24
2022/01/12 00:08:33;;;;;;;2.30;1.93;;;19.50;45.00;;;;;;5094045;28;20167;-23
2022/01/12 00:11:03;;;;;;;1.90;1.70;;;19.50;45.00;;;;;;5095259;28;20249;-21
2022/01/12 00:13:29;;;;;;;1.90;1.63;;;19.50;45.00;;;;;;5079668;28;20203;-23
2022/01/12 00:15:55;;;;;;;3.10;1.80;;;19.50;45.10;;;;;;5078977;28;20175;-23
2022/01/12 00:18:21;;;;;;;3.50;1.70;;;19.40;45.10;;;;;;5097305;28;20167;-22
2022/01/12 00:20:49;;;;;;;4.07;2.10;;;19.40;45.20;;;;;;5097484;28;20179;-23
2022/01/12 00:23:16;;;;;;;2.27;1.63;;;19.30;45.20;;;;;;5097554;28;20203;-22
2022/01/12 00:25:58;;;;;;;3.03;1.70;;;19.30;45.20;;;;;;5098254;28;20523;-23
2022/01/12 00:33:57;;;;;;;3.70;1.73;;;19.20;45.30;;;;;;5098558;28;20474;-23
2022/01/12 00:36:23;;;;;;;3.87;1.60;;;19.10;45.30;;;;;;5097201;28;20461;-23
2022/01/12 00:38:48;;;;;;;2.17;1.67;;;19.00;45.20;;;;;;5095961;28;20201;-24
2022/01/12 00:41:18;;;;;;;4.20;1.60;;;19.00;45.30;;;;;;5096510;28;20563;-23
2022/01/12 00:43:47;;;;;;;2.30;1.77;;;18.90;45.30;;;;;;5097807;28;20188;-23
2022/01/12 00:46:15;;;;;;;2.90;1.80;;;18.90;45.30;;;;;;5097319;28;20588;-21
2022/01/12 00:48:41;;;;;;;3.30;1.73;;;18.80;45.20;;;;;;5080572;28;20521;-23
2022/01/12 00:51:08;;;;;;;2.47;1.70;;;18.80;45.30;;;;;;5098047;28;20330;-24
2022/01/12 00:53:34;;;;;;;2.57;1.90;;;18.80;45.30;;;;;;5097899;28;20479;-21
2022/01/12 00:55:59;;;;;;;1.73;1.60;;;18.80;45.30;;;;;;5097554;28;20181;-22
2022/01/12 00:58:25;;;;;;;2.70;1.70;;;18.80;45.40;;;;;;5097451;28;20194;-23
2022/01/12 01:00:51;;;;;;;1.90;1.47;;;18.80;45.40;;;;;;5096435;28;20173;-21
2022/01/12 01:03:17;;;;;;;2.77;1.60;;;18.80;45.40;;;;;;5096811;28;20174;-21
2022/01/12 01:05:42;;;;;;;2.20;1.40;;;18.80;45.50;;;;;;5097431;28;20268;-22
2022/01/12 01:08:09;;;;;;;3.10;1.60;;;18.80;45.50;;;;;;5097243;28;20182;-21
2022/01/12 01:10:56;;;;;;;1.70;1.50;;;18.70;45.90;;;;;;5097426;28;20559;-21
2022/01/12 01:13:27;;;;;;;1.90;1.40;;;18.70;45.60;;;;;;5094727;28;20464;-22
2022/01/12 01:26:37;;;;;;;1.57;1.43;;;18.60;45.80;;;;;;5096183;28;20179;-21
2022/01/12 01:29:04;;;;;;;1.90;1.60;;;18.50;45.90;;;;;;5097128;28;20197;-23
2022/01/12 01:31:32;;;;;;;1.43;1.30;;;18.50;45.90;;;;;;5094724;28;20188;-21
2022/01/12 01:34:06;;;;;;;2.50;1.70;;;18.50;46.00;;;;;;5076243;28;20178;-23
2022/01/12 01:36:34;;;;;;;2.03;1.40;;;18.40;46.00;;;;;;5077928;28;20237;-22
2022/01/12 01:38:59;;;;;;;1.77;1.50;;;18.40;46.10;;;;;;5095146;28;20498;-22
2022/01/12 01:41:25;;;;;;;2.33;1.50;;;18.30;46.20;;;;;;5096251;28;20178;-21
2022/01/12 01:54:50;;;;;;;1.77;1.43;;;18.10;46.50;;;;;;5096771;28;20604;-23
2022/01/12 01:57:17;;;;;;;1.70;1.40;;;18.10;46.50;;;;;;5096355;28;20205;-21
2022/01/12 01:59:45;;;;;;;2.83;1.50;;;18.10;46.60;;;;;;5095240;28;20525;-24
2022/01/12 02:02:11;;;;;;;1.67;1.40;;;18.00;46.60;;;;;;5096726;28;20169;-24
2022/01/12 02:04:37;;;;;;;1.93;1.50;;;18.00;46.70;;;;;;5079045;28;20173;-22
2022/01/12 02:07:03;;;;;;;2.47;1.30;;;18.00;46.70;;;;;;5079013;28;20182;-24
2022/01/12 02:09:28;;;;;;;2.37;1.60;;;17.90;46.70;;;;;;5079677;28;20181;-23
2022/01/12 02:11:54;;;;;;;1.37;1.27;;;17.90;46.80;;;;;;5095158;28;20184;-23
2022/01/12 02:14:20;;;;;;;2.27;1.53;;;17.90;46.90;;;;;;5078020;28;20189;-23
2022/01/12 02:16:58;;;;;;;1.70;1.40;;;17.80;46.90;;;;;;5078826;28;20561;-24
2022/01/12 02:36:13;;;;;;;2.07;1.20;;;17.60;47.30;;;;;;5096195;28;20180;-23
2022/01/12 02:41:23;;;;;;;1.63;1.40;;;17.50;47.30;;;;;;5095892;28;20290;-24
2022/01/12 02:55:07;;;;;;;2.00;1.40;;;17.30;47.40;;;;;;5099105;28;20730;-81
2022/01/12 02:57:33;;;;;;;1.50;1.40;;;17.30;47.40;;;;;;5081431;28;20178;-81
2022/01/12 03:02:35;;;;;;;1.33;1.23;;;17.20;47.60;;;;;;5099854;28;20193;-82
2022/01/12 03:07:53;;;;;;;2.30;1.50;;;17.10;47.60;;;;;;5096717;28;20480;-83
2022/01/12 03:10:25;;;;;;;1.70;1.40;;;17.10;47.70;;;;;;5079202;28;20236;-83
2022/01/12 03:13:03;;;;;;;1.87;1.27;;;17.10;48.20;;;;;;5078637;28;20551;-83
2022/01/12 03:15:29;;;;;;;1.33;1.20;;;17.10;47.80;;;;;;5078826;28;20174;-82
2022/01/12 03:17:55;;;;;;;1.57;1.47;;;17.00;47.80;;;;;;5080022;28;20184;-83
2022/01/12 03:20:20;;;;;;;1.73;1.40;;;17.00;47.80;;;;;;5080854;28;20215;-82
2022/01/12 03:22:46;;;;;;;1.73;1.40;;;17.00;47.90;;;;;;5080551;28;20295;-82
2022/01/12 03:25:12;;;;;;;1.40;1.30;;;17.00;47.90;;;;;;5097946;28;20170;-82
2022/01/12 03:27:38;;;;;;;2.43;1.40;;;16.90;47.90;;;;;;5082011;28;20451;-81
2022/01/12 03:30:05;;;;;;;1.30;1.20;;;16.90;47.90;;;;;;5082008;28;20186;-81
2022/01/12 03:32:42;;;;;;;1.30;1.20;;;16.90;48.00;;;;;;5081667;28;20269;-81
2022/01/12 03:35:22;;;;;;;2.10;1.50;;;16.90;48.00;;;;;;5078628;28;20189;-81
2022/01/12 03:40:31;;;;;;;1.73;1.40;;;16.80;48.10;;;;;;5096468;28;20584;-81
2022/01/12 03:42:57;;;;;;;1.50;1.30;;;16.70;48.10;;;;;;5078751;28;20216;-81
2022/01/12 03:45:23;;;;;;;1.83;1.50;;;16.70;48.20;;;;;;5084220;28;20285;-81
2022/01/12 03:47:49;;;;;;;1.60;1.30;;;16.70;48.30;;;;;;5082388;28;20170;-81
2022/01/12 03:50:15;;;;;;;1.23;1.10;;;16.60;48.30;;;;;;5082857;28;20290;-82
2022/01/12 03:52:41;;;;;;;1.37;1.20;;;16.60;48.40;;;;;;5084235;28;20613;-82
2022/01/12 03:55:07;;;;;;;1.80;1.20;;;16.60;48.50;;;;;;5085043;28;20202;-81
2022/01/12 03:57:33;;;;;;;1.30;1.20;;;16.60;48.60;;;;;;5084208;28;20183;-82
2022/01/12 03:59:59;;;;;;;1.20;1.10;;;16.50;48.50;;;;;;5083703;28;20301;-81
2022/01/12 04:02:25;;;;;;;1.50;1.30;;;16.50;48.70;;;;;;5084391;28;20184;-82
2022/01/12 04:05:24;;;;;;;1.30;1.20;;;16.50;48.70;;;;;;5083923;28;20172;-82
2022/01/12 04:10:24;;;;;;;1.37;1.10;;;16.40;48.70;;;;;;5099792;28;20180;-82
2022/01/12 04:12:50;;;;;;;1.47;1.10;;;19.30;46.50;;;;;;5080889;28;20396;-82
2022/01/12 04:15:15;;;;;;;1.43;1.23;;;20.40;43.90;;;;;;5081855;28;20176;-82
2022/01/12 04:17:41;;;;;;;1.30;1.20;;;20.70;43.10;;;;;;5081749;28;20181;-82
2022/01/12 04:20:08;;;;;;;1.20;1.10;;;20.80;42.80;;;;;;5081671;28;20269;-83
2022/01/12 04:25:18;;;;;;;1.20;1.10;;;21.10;42.50;;;;;;5100349;28;20568;-82
2022/01/12 04:27:44;;;;;;;1.27;1.10;;;21.50;42.20;;;;;;5083175;28;20167;-82
2022/01/12 04:30:10;;;;;;;1.30;1.10;;;21.90;41.80;;;;;;5082985;28;20283;-82
2022/01/12 04:32:41;;;;;;;1.37;1.10;;;22.20;41.40;;;;;;5082088;28;20202;-82
2022/01/12 04:35:07;;;;;;;1.23;1.10;;;22.60;41.00;;;;;;5082807;28;20183;-82
2022/01/12 04:37:32;;;;;;;1.23;1.13;;;22.90;40.70;;;;;;5083155;28;20180;-82
2022/01/12 04:39:58;;;;;;;1.50;1.20;;;22.90;40.50;;;;;;5083112;28;20209;-81
2022/01/12 04:42:24;;;;;;;1.30;1.10;;;23.00;40.50;;;;;;5084302;28;20284;-82
2022/01/12 04:44:59;;;;;;;1.10;1.00;;;23.20;40.40;;;;;;5085010;28;20178;-81
2022/01/12 04:47:45;;;;;;;0.90;0.90;;;23.40;40.20;;;;;;5082959;28;20546;-81
2022/01/12 04:50:11;;;;;;;2.50;1.30;;;23.70;39.80;;;;;;5082350;28;20201;-81
2022/01/12 04:52:37;;;;;;;1.30;1.10;;;23.70;39.70;;;;;;5083504;28;20171;-81
2022/01/12 04:55:03;;;;;;;1.40;1.20;;;23.70;39.80;;;;;;5083492;28;20458;-81
2022/01/12 04:57:29;;;;;;;1.17;1.10;;;23.70;39.80;;;;;;5082692;28;20281;-81
2022/01/12 05:00:06;;;;;;;1.30;1.10;;;23.90;39.80;;;;;;5083266;28;20229;-81
2022/01/12 05:13:51;;;;;;;1.10;1.00;;;23.90;39.60;;;;;;5016501;28;20342;-81
2022/01/12 05:16:18;;;;;;;1.20;1.10;;;23.60;39.90;;;;;;5047916;28;20186;-82
2022/01/12 05:18:46;;;;;;;1.20;1.10;;;23.40;40.00;;;;;;5080842;28;20194;-82
2022/01/12 05:21:12;;;;;;;1.10;1.00;;;23.20;40.20;;;;;;5081081;28;20449;-82
2022/01/12 05:27:00;;;;;;;1.50;1.30;;;22.60;40.80;;;;;;5098029;28;20182;-82
2022/01/12 05:29:26;;;;;;;1.10;1.00;;;22.20;41.20;;;;;;5078453;28;20175;-83
2022/01/12 05:31:52;;;;;;;1.03;0.93;;;22.00;41.90;;;;;;5078496;28;20248;-83
2022/01/12 05:34:18;;;;;;;1.17;1.00;;;21.70;41.80;;;;;;5079301;28;20178;-82
2022/01/12 05:36:44;;;;;;;2.70;1.20;;;21.40;42.10;;;;;;5079873;28;20180;-82
2022/01/12 05:39:10;;;;;;;1.30;1.03;;;21.20;42.20;;;;;;5082393;28;20209;-81
2022/01/12 05:41:35;;;;;;;1.37;1.27;;;21.00;42.60;;;;;;5083050;28;20185;-80
2022/01/12 05:44:07;;;;;;;1.60;1.17;;;20.80;42.80;;;;;;5082232;28;20212;-80
2022/01/12 05:46:33;;;;;;;1.40;1.20;;;20.60;43.00;;;;;;5080135;28;20184;-80
2022/01/12 05:51:45;;;;;;;1.10;1.00;;;20.10;43.50;;;;;;5097529;28;20185;-79
2022/01/12 05:54:12;;;;;;;1.27;1.10;;;20.20;43.60;;;;;;5078529;28;20699;-80
2022/01/12 05:56:38;;;;;;;1.30;1.20;;;20.50;43.40;;;;;;5079905;28;20176;-79
2022/01/12 05:59:04;;;;;;;2.10;1.30;;;21.00;43.00;;;;;;5078393;28;20203;-79
2022/01/12 06:01:29;;;;;;;2.53;1.30;;;21.70;42.40;;;;;;5077800;28;20201;-79
2022/01/12 06:03:57;;;;;;;1.93;1.30;;;22.50;41.70;;;;;;5077820;28;20223;-79
2022/01/12 06:06:23;;;;;;;1.40;1.27;;;23.30;40.70;;;;;;5076985;28;20167;-80
2022/01/12 06:08:49;;;;;;;1.67;1.30;;;23.80;40.00;;;;;;5076602;28;20717;-80
2022/01/12 06:11:15;;;;;;;1.33;1.23;;;24.10;39.60;;;;;;5077669;28;20458;-80
2022/01/12 06:13:43;;;;;;;2.77;1.27;;;24.10;39.50;;;;;;5076796;28;20193;-80
2022/01/12 06:16:09;;;;;;;1.40;1.30;;;24.00;39.50;;;;;;5075706;28;20185;-79
2022/01/12 06:18:34;;;;;;;1.30;1.00;;;23.90;39.60;;;;;;5074549;28;20217;-80
2022/01/12 06:21:00;;;;;;;1.37;1.10;;;23.90;39.60;;;;;;5092685;28;20167;-79
2022/01/12 06:23:26;;;;;;;1.33;1.00;;;23.90;39.70;;;;;;5073623;28;20175;-79
2022/01/12 06:25:52;;;;;;;2.87;1.30;;;24.00;39.80;;;;;;5075236;28;20171;-79
2022/01/12 06:28:34;;;;;;;3.37;1.30;;;23.90;40.00;;;;;;5074885;28;20331;-79
2022/01/12 06:31:10;;;;;;;1.70;1.20;;;23.80;40.10;;;;;;5073979;28;20436;-79
2022/01/12 06:33:37;;;;;;;2.40;1.30;;;23.60;40.30;;;;;;5078251;28;20594;-79
2022/01/12 06:36:03;;;;;;;2.93;1.20;;;23.30;40.60;;;;;;5072585;28;20607;-80
2022/01/12 06:38:29;;;;;;;2.43;1.37;;;23.10;40.80;;;;;;5073574;28;20319;-79
2022/01/12 06:40:55;;;;;;;2.63;1.23;;;22.70;41.10;;;;;;5073874;28;20170;-80
2022/01/12 06:43:21;;;;;;;3.30;1.20;;;22.50;41.50;;;;;;5073555;28;20185;-79
2022/01/12 06:45:47;;;;;;;2.20;1.20;;;22.20;41.80;;;;;;5073333;28;20177;-80
2022/01/12 06:48:13;;;;;;;1.60;1.10;;;22.00;42.00;;;;;;5073185;28;20190;-80
2022/01/12 06:50:39;;;;;;;1.63;1.20;;;21.80;42.30;;;;;;5071862;28;20181;-79
2022/01/12 06:53:05;;;;;;;2.70;1.23;;;21.60;42.50;;;;;;5071578;28;20237;-79
2022/01/12 06:55:32;;;;;;;4.93;1.40;;;21.40;42.80;;;;;;5072642;28;20720;-80
2022/01/12 06:57:57;;;;;;;2.73;1.20;;;21.20;43.00;;;;;;5078702;28;20180;-80
2022/01/12 07:00:23;;;;;;;1.30;1.10;;;20.90;43.20;;;;;;5078841;28;20220;-80
2022/01/12 07:02:49;;;;;;;1.73;1.40;;;20.70;43.50;;;;;;5076294;28;20209;-78
2022/01/12 07:05:15;;;;;;;1.63;1.30;;;20.70;43.70;;;;;;5072811;28;20375;-79
2022/01/12 07:07:41;;;;;;;5.00;1.60;;;20.70;43.60;;;;;;5072944;28;20178;-79
2022/01/12 07:10:08;;;;;;;3.97;1.30;;;20.90;43.50;;;;;;5072782;28;20229;-79
2022/01/12 07:12:34;;;;;;;2.73;1.57;;;21.30;43.30;;;;;;5073966;28;20176;-79
2022/01/12 07:14:59;;;;;;;4.07;1.70;;;21.70;42.90;;;;;;5072079;28;20180;-79
2022/01/12 07:17:25;;;;;;;1.57;1.17;;;22.40;42.30;;;;;;5077001;28;20254;-79
2022/01/12 07:19:51;;;;;;;6.30;1.50;;;23.00;41.70;;;;;;5072648;28;20214;-79
2022/01/12 07:22:16;;;;;;;2.90;1.60;;;23.40;41.10;;;;;;5072191;28;20283;-78
2022/01/12 07:29:19;;;;;;;;;;;;;;;;;;;;;
2022/01/12 07:32:45;;;;;;;2.77;1.53;;;24.50;40.20;;;;;;4987551;28;20181;-83
2022/01/12 07:39:32;;;;;;;;;;;;;;;;;;;;;
2022/01/12 07:42:51;;;;;;;5.40;1.90;;;23.90;40.50;;;;;;4982574;28;20206;-83
2022/01/12 07:45:22;;;;;;;3.97;2.00;;;23.60;40.70;;;;;;4899327;29;20567;-83
2022/01/12 07:48:27;;;;;;;;;;;;;;;;;;;;;
2022/01/12 07:51:36;;;;;;;;;;;;;;;;;;;;;
2022/01/12 07:54:38;;;;;;;2.87;1.90;;;23.00;41.50;;;;;;4912417;29;20177;-83
2022/01/12 07:57:35;;;;;;;5.17;2.10;;;22.60;41.80;;;;;;4895370;29;20230;-83
2022/01/12 08:00:43;;;;;;;4.37;2.10;;;22.40;42.10;;;;;;4895345;29;20692;-83
2022/01/12 08:03:57;;;;;;;3.80;1.90;;;22.00;42.40;;;;;;4942314;28;20190;-82
2022/01/12 08:13:27;;;;;;;5.87;2.20;;;21.10;43.40;;;;;;4947921;29;20572;-83
2022/01/12 08:16:31;;;;;;;;;;;;;;;;;;;;;
2022/01/12 08:19:33;;;;;;;;;;;;;;;;;;;;;
2022/01/12 08:22:15;;;;;;;3.73;1.80;;;20.40;44.20;;;;;;5008324;28;20270;-82
2022/01/12 08:34:49;;;;;;;;;;;;;;;;;;;;;
2022/01/12 08:37:44;;;;;;;4.13;2.20;;;23.20;41.80;;;;;;5071641;28;20448;-82
2022/01/12 08:40:17;;;;;;;4.63;2.07;;;23.50;41.10;;;;;;5051575;28;20483;-82
2022/01/12 08:42:58;;;;;;;3.93;2.20;;;23.90;40.70;;;;;;5053590;28;20171;-82
2022/01/12 09:00:09;;;;;;;2.80;1.90;;;23.90;40.50;;;;;;5026762;28;20211;-83
2022/01/12 09:06:11;;;;;;;4.63;2.00;;;23.70;40.70;;;;;;5045918;28;20436;-82
2022/01/12 09:08:47;;;;;;;3.23;1.90;;;23.30;41.00;;;;;;5050421;28;20164;-82
2022/01/12 09:11:34;;;;;;;4.87;2.00;;;23.00;41.20;;;;;;5050902;28;20549;-82
2022/01/12 09:23:20;;;;;;;2.43;1.93;;;21.90;42.50;;;;;;5036409;28;20186;-82
2022/01/12 09:25:59;;;;;;;4.67;2.27;;;21.70;42.80;;;;;;5054900;28;20171;-82
2022/01/12 09:28:45;;;;;;;3.40;2.10;;;21.50;43.00;;;;;;5054180;28;20371;-82
2022/01/12 09:34:29;;;;;;;4.43;2.37;;;21.10;43.50;;;;;;5072585;28;20224;-82
2022/01/12 09:37:53;;;;;;;3.63;2.10;;;20.80;43.70;;;;;;5070349;28;20337;-82
2022/01/12 09:40:22;;;;;;;2.43;2.10;;;20.60;44.00;;;;;;5054135;28;20287;-82
2022/01/12 09:42:49;;;;;;;4.13;2.00;;;20.30;44.30;;;;;;5053956;28;20179;-82
2022/01/12 09:45:17;;;;;;;3.40;2.03;;;20.30;44.50;;;;;;5054763;28;20182;-81
2022/01/12 09:47:55;;;;;;;3.67;2.00;;;20.60;44.30;;;;;;5054874;28;20172;-82
2022/01/12 09:50:32;;;;;;;3.90;2.07;;;21.20;43.80;;;;;;5071370;28;20457;-82
2022/01/12 09:52:58;;;;;;;3.77;1.80;;;21.90;43.20;;;;;;5054229;28;20456;-82
2022/01/12 09:55:27;;;;;;;3.97;1.90;;;22.70;42.40;;;;;;5054755;28;20178;-82
2022/01/12 09:57:55;;;;;;;3.27;1.97;;;23.30;41.70;;;;;;5059626;28;20194;-82
2022/01/12 10:00:26;;;;;;;3.20;1.90;;;23.80;41.10;;;;;;5054083;28;20214;-82
2022/01/12 10:03:07;;;;;;;4.33;2.07;;;24.30;40.50;;;;;;5055703;28;20616;-82
2022/01/12 10:05:38;;;;;;;3.33;2.10;;;24.50;40.20;;;;;;5053508;28;20183;-82
2022/01/12 10:08:35;;;;;;;2.83;2.20;;;24.40;40.20;;;;;;5052065;28;20256;-82
2022/01/12 10:11:10;;;;;;;3.60;2.17;;;24.30;40.20;;;;;;5068430;28;20186;-83
2022/01/12 10:13:42;;;;;;;2.43;1.97;;;24.20;40.30;;;;;;5050743;28;20179;-82
2022/01/12 10:16:20;;;;;;;2.83;2.10;;;24.20;40.30;;;;;;5051851;28;20183;-82
2022/01/12 10:19:02;;;;;;;2.83;2.03;;;24.10;40.40;;;;;;5057052;28;20171;-82
2022/01/12 10:21:55;;;;;;;2.70;2.00;;;23.90;40.60;;;;;;5058545;28;20168;-82
2022/01/12 10:24:22;;;;;;;3.30;1.97;;;23.50;40.80;;;;;;5064997;28;20726;-82
2022/01/12 10:27:00;;;;;;;3.53;2.00;;;23.30;41.20;;;;;;5058585;28;20210;-82
2022/01/12 10:29:28;;;;;;;3.70;2.03;;;23.10;41.40;;;;;;5056626;28;20191;-82
2022/01/12 10:32:00;;;;;;;3.07;2.10;;;22.90;41.60;;;;;;5067456;28;20214;-82
2022/01/12 10:34:29;;;;;;;3.00;2.23;;;22.70;41.90;;;;;;5057952;28;20180;-82
2022/01/12 10:36:58;;;;;;;3.23;2.27;;;22.50;42.10;;;;;;5058452;28;20839;-82
2022/01/12 10:39:29;;;;;;;2.73;2.17;;;22.20;42.30;;;;;;5058658;28;20191;-82
2022/01/12 10:42:14;;;;;;;5.47;2.67;;;21.90;42.60;;;;;;5065864;28;20712;-82
2022/01/12 10:44:42;;;;;;;3.60;3.00;;;21.70;42.90;;;;;;5052360;28;20194;-77
2022/01/12 10:47:18;;;;;;;3.77;2.70;;;21.40;43.10;;;;;;5051871;28;20463;-77
2022/01/12 10:50:10;;;;;;;3.57;2.80;;;21.20;43.30;;;;;;5050493;28;20179;-78
2022/01/12 10:52:39;;;;;;;4.67;2.97;;;20.90;43.50;;;;;;5057433;28;20212;-79
2022/01/12 10:55:10;;;;;;;3.80;3.20;;;20.70;43.70;;;;;;5051128;28;20519;-78
2022/01/12 10:57:39;;;;;;;4.87;3.20;;;20.50;43.80;;;;;;5051666;28;20214;-78
2022/01/12 11:00:23;;;;;;;4.17;3.50;;;20.30;43.90;;;;;;5051722;28;20415;-78
2022/01/12 11:02:58;;;;;;;4.13;3.13;;;20.30;44.00;;;;;;5050193;28;20293;-78
2022/01/12 11:05:26;;;;;;;5.23;3.40;;;20.60;43.80;;;;;;5050691;28;20170;-79
2022/01/12 11:08:20;;;;;;;7.03;3.83;;;21.00;43.20;;;;;;5051284;28;20182;-79
2022/01/12 11:10:50;;;;;;;5.90;3.57;;;21.50;42.50;;;;;;5051190;28;20183;-79
2022/01/12 11:13:16;;;;;;;6.27;3.70;;;22.20;42.00;;;;;;5052969;28;20173;-79
2022/01/12 11:15:43;;;;;;;8.93;3.60;;;22.80;41.40;;;;;;5050302;28;20190;-85
2022/01/12 11:18:12;;;;;;;11.67;4.37;;;23.10;41.20;;;;;;5050853;28;20182;-85
2022/01/12 11:20:41;;;;;;;8.90;4.03;;;23.90;40.40;;;;;;5049586;28;20268;-85
2022/01/12 11:23:14;;;;;;;9.23;4.57;;;24.60;39.40;;;;;;5050926;28;20172;-84
2022/01/12 11:25:44;;;;;;;6.33;4.50;;;24.80;39.10;;;;;;5051051;28;20171;-81
2022/01/12 11:28:31;;;;;;;9.03;4.27;;;24.80;38.90;;;;;;5051779;28;20174;-81
2022/01/12 11:30:59;;;;;;;8.73;4.10;;;24.60;39.20;;;;;;5050370;28;20178;-81
2022/01/12 11:33:31;;;;;;;10.77;4.43;;;24.60;39.30;;;;;;5053810;28;20458;-81
2022/01/12 11:36:02;;;;;;;8.33;4.23;;;24.50;39.50;;;;;;5052684;28;20494;-81
2022/01/12 11:38:34;;;;;;;7.00;4.20;;;24.30;39.60;;;;;;5051853;28;20484;-81
2022/01/12 11:41:33;;;;;;;8.87;4.17;;;24.00;39.90;;;;;;5049848;28;20203;-81
2022/01/12 11:44:01;;;;;;;7.13;4.10;;;23.60;40.30;;;;;;5051080;28;20384;-81
2022/01/12 11:47:02;;;;;;;7.30;4.10;;;23.30;40.70;;;;;;5061956;28;20567;-81
2022/01/12 11:49:35;;;;;;;7.30;4.00;;;22.90;41.20;;;;;;5049080;28;20289;-81
2022/01/12 11:52:13;;;;;;;8.80;4.23;;;22.60;41.50;;;;;;5070791;28;20258;-81
2022/01/12 11:54:39;;;;;;;6.23;4.13;;;22.40;41.90;;;;;;5073104;28;20268;-81
2022/01/12 11:57:08;;;;;;;7.10;4.73;;;22.00;42.20;;;;;;5070892;28;20174;-81
2022/01/12 11:59:52;;;;;;;6.83;4.00;;;21.90;42.60;;;;;;5071190;28;20304;-81
2022/01/12 12:02:22;;;;;;;7.03;4.23;;;21.60;42.90;;;;;;5071841;28;20214;-81
2022/01/12 12:04:57;;;;;;;6.33;3.93;;;21.30;43.20;;;;;;5071716;28;20576;-81
2022/01/12 12:07:25;;;;;;;5.80;4.10;;;21.10;43.70;;;;;;5073508;28;20277;-81
2022/01/12 12:09:58;;;;;;;7.23;4.23;;;20.90;44.00;;;;;;5076232;28;20177;-81
2022/01/12 12:12:33;;;;;;;6.53;3.97;;;20.60;44.20;;;;;;5074293;28;20175;-81
2022/01/12 12:15:03;;;;;;;6.33;4.30;;;20.40;44.60;;;;;;5091831;28;20224;-81
2022/01/12 12:17:32;;;;;;;5.60;3.87;;;20.30;44.90;;;;;;5092025;28;20543;-81
2022/01/12 12:19:59;;;;;;;5.50;3.77;;;20.30;44.90;;;;;;5073557;28;20508;-81
2022/01/12 12:22:32;;;;;;;10.17;4.37;;;20.60;44.60;;;;;;5090746;28;20181;-81
2022/01/12 12:25:06;;;;;;;5.57;3.97;;;20.80;44.50;;;;;;5073363;28;20423;-81
2022/01/12 12:27:33;;;;;;;6.43;3.73;;;20.70;44.40;;;;;;5075312;28;20179;-81
2022/01/12 12:30:00;;;;;;;6.97;4.00;;;20.50;44.60;;;;;;5074931;28;20193;-81
2022/01/12 12:32:39;;;;;;;5.50;3.93;;;20.30;44.80;;;;;;5073283;28;20415;-81
2022/01/12 12:35:08;;;;;;;5.83;4.00;;;20.20;45.10;;;;;;5074316;28;20491;-81
2022/01/12 12:37:56;;;;;;;7.97;4.30;;;20.00;45.30;;;;;;5074801;28;20179;-81
2022/01/12 12:40:26;;;;;;;6.47;3.97;;;20.00;45.50;;;;;;5074548;28;20209;-81
2022/01/12 12:43:13;;;;;;;5.77;4.07;;;21.10;44.80;;;;;;5075261;28;20469;-81
2022/01/12 12:45:44;;;;;;;7.57;4.37;;;22.40;43.40;;;;;;5074899;28;20210;-81
2022/01/12 12:48:13;;;;;;;5.33;4.30;;;23.70;42.00;;;;;;5073380;28;20315;-81
2022/01/12 12:50:39;;;;;;;6.20;4.10;;;24.30;40.90;;;;;;5075036;28;20255;-81
2022/01/12 12:53:06;;;;;;;6.03;4.47;;;24.30;40.70;;;;;;5074455;28;20175;-81
2022/01/12 12:55:41;;;;;;;6.33;4.30;;;24.40;40.70;;;;;;5075662;28;20563;-81
2022/01/12 12:58:08;;;;;;;7.23;4.67;;;24.50;40.60;;;;;;5096441;28;20575;-81
2022/01/12 13:00:36;;;;;;;7.60;4.30;;;24.60;40.50;;;;;;5080603;28;20594;-81
2022/01/12 13:03:04;;;;;;;7.63;4.60;;;24.70;40.40;;;;;;5077587;28;20248;-81
2022/01/12 13:05:37;;;;;;;7.77;4.40;;;24.40;40.50;;;;;;5080288;28;20186;-81
2022/01/12 13:08:04;;;;;;;6.70;4.90;;;24.10;40.80;;;;;;5058203;28;20187;-81
2022/01/12 13:10:32;;;;;;;10.03;4.63;;;23.70;41.20;;;;;;5055203;28;20569;-80
2022/01/12 13:12:59;;;;;;;7.97;4.80;;;23.40;41.50;;;;;;5055010;28;20440;-81
2022/01/12 13:15:37;;;;;;;7.17;4.87;;;23.10;42.00;;;;;;5054015;28;20179;-81
2022/01/12 13:18:20;;;;;;;6.23;4.30;;;22.80;42.20;;;;;;5054556;28;20175;-82
2022/01/12 13:21:07;;;;;;;7.57;4.30;;;22.50;42.60;;;;;;5056926;28;20273;-81
2022/01/12 13:23:42;;;;;;;5.87;4.20;;;22.30;42.80;;;;;;5070106;28;20194;-82
2022/01/12 13:26:11;;;;;;;7.30;4.43;;;22.00;43.10;;;;;;5062455;28;20784;-81
2022/01/12 13:28:40;;;;;;;7.43;4.40;;;21.90;43.30;;;;;;5060158;28;20214;-81
2022/01/12 13:31:09;;;;;;;9.47;4.73;;;21.70;43.60;;;;;;5075845;28;20572;-81
2022/01/12 13:33:37;;;;;;;7.50;5.30;;;21.40;43.80;;;;;;5090654;28;20475;-81
2022/01/12 13:36:23;;;;;;;7.73;5.07;;;21.20;44.10;;;;;;5090909;28;20232;-81
2022/01/12 13:38:55;;;;;;;7.70;5.00;;;21.00;44.40;;;;;;5092985;28;20275;-81
2022/01/12 13:41:25;;;;;;;10.37;5.40;;;20.80;44.60;;;;;;5090929;28;20181;-81
2022/01/12 13:44:02;;;;;;;8.53;5.60;;;20.60;44.80;;;;;;5078258;28;20552;-81
2022/01/12 13:46:37;;;;;;;7.30;5.30;;;20.50;45.00;;;;;;5078095;27;20212;-82
2022/01/12 13:49:52;;;;;;;13.63;5.83;;;20.30;45.10;;;;;;5072892;28;20190;-81
2022/01/12 13:52:25;;;;;;;7.77;5.17;;;20.20;45.40;;;;;;5070353;28;20418;-81
2022/01/12 13:54:51;;;;;;;10.33;5.90;;;20.00;45.60;;;;;;5073087;28;20589;-81
2022/01/12 13:57:18;;;;;;;9.00;5.53;;;19.90;45.80;;;;;;5072901;28;20185;-81
2022/01/12 13:59:52;;;;;;;9.30;5.43;;;19.90;46.00;;;;;;5071304;28;20216;-81
2022/01/12 14:02:27;;;;;;;14.70;5.73;;;19.90;46.10;;;;;;5072660;28;20601;-80
2022/01/12 14:05:08;;;;;;;13.13;5.93;;;20.10;45.90;;;;;;5072673;28;20183;-80
2022/01/12 14:07:39;;;;;;;10.27;6.23;;;20.60;45.50;;;;;;5072083;28;20188;-81
2022/01/12 14:10:07;;;;;;;10.17;6.07;;;21.20;45.00;;;;;;5073016;28;20171;-81
2022/01/12 14:12:33;;;;;;;12.80;6.30;;;21.90;44.20;;;;;;5077921;28;20188;-81
2022/01/12 14:15:07;;;;;;;10.80;6.03;;;22.70;43.20;;;;;;5071305;28;20337;-81
2022/01/12 14:17:48;;;;;;;9.03;6.00;;;23.50;42.40;;;;;;5072663;28;20199;-81
2022/01/12 14:20:23;;;;;;;10.43;5.90;;;24.00;41.70;;;;;;5072734;28;20220;-81
2022/01/12 14:23:01;;;;;;;11.53;6.43;;;24.40;41.20;;;;;;5071897;28;20510;-81
2022/01/12 14:25:36;;;;;;;9.77;6.13;;;24.50;40.90;;;;;;5071258;28;20463;-81
2022/01/12 14:28:50;;;;;;;12.67;6.47;;;24.50;40.90;;;;;;5072158;28;20182;-81
2022/01/12 14:31:17;;;;;;;12.27;6.90;;;24.50;40.80;;;;;;5066530;28;20295;-80
2022/01/12 14:36:44;;;;;;;10.43;6.70;;;24.20;41.00;;;;;;5081549;28;20182;-81
2022/01/12 14:39:11;;;;;;;10.77;6.80;;;23.90;41.30;;;;;;5072447;28;20245;-81
2022/01/12 14:41:37;;;;;;;10.47;6.97;;;23.60;41.70;;;;;;5074300;28;20511;-79
2022/01/12 14:44:03;;;;;;;11.87;6.80;;;23.30;42.00;;;;;;5074146;28;20594;-80
2022/01/12 14:46:29;;;;;;;11.83;6.90;;;22.90;42.30;;;;;;5072895;28;20171;-79
2022/01/12 14:48:55;;;;;;;13.33;7.10;;;22.50;42.70;;;;;;5073839;28;20236;-79
2022/01/12 14:51:21;;;;;;;10.20;6.40;;;22.20;43.00;;;;;;5073228;28;20244;-79
2022/01/12 14:53:47;;;;;;;13.17;7.17;;;21.90;43.40;;;;;;5073441;28;20230;-80
2022/01/12 14:56:13;;;;;;;13.17;6.90;;;21.70;43.80;;;;;;5072979;28;20276;-80
2022/01/12 14:58:40;;;;;;;13.70;6.93;;;21.40;44.00;;;;;;5071583;28;20199;-79
2022/01/12 15:01:06;;;;;;;11.80;6.87;;;21.20;44.30;;;;;;5072365;28;20252;-79
2022/01/12 15:03:31;;;;;;;11.03;6.37;;;21.00;44.60;;;;;;5072860;28;20209;-79
2022/01/12 15:06:03;;;;;;;13.60;6.97;;;20.80;44.80;;;;;;5072327;28;20768;-79
2022/01/12 15:08:28;;;;;;;12.07;6.33;;;20.70;45.00;;;;;;5071927;28;20203;-79
2022/01/12 15:10:54;;;;;;;13.00;6.73;;;20.40;45.30;;;;;;5072242;28;20476;-79
2022/01/12 15:15:50;;;;;;;11.27;6.63;;;20.10;45.70;;;;;;5088657;28;20377;-77
2022/01/12 15:18:16;;;;;;;10.70;6.40;;;20.00;46.00;;;;;;5070535;28;20284;-77
2022/01/12 15:20:43;;;;;;;11.30;7.00;;;19.80;46.20;;;;;;5071973;28;20207;-77
2022/01/12 15:23:09;;;;;;;10.10;6.13;;;19.90;46.30;;;;;;5071189;28;20204;-77
2022/01/12 15:25:35;;;;;;;10.73;7.10;;;20.20;46.10;;;;;;5071114;28;20462;-77
2022/01/12 15:28:21;;;;;;;12.00;6.60;;;20.60;45.80;;;;;;5072424;28;20194;-78
2022/01/12 15:30:47;;;;;;;10.07;6.60;;;21.30;45.10;;;;;;5089336;28;20180;-78
2022/01/12 15:33:14;;;;;;;11.10;6.00;;;22.00;44.20;;;;;;5077218;28;20237;-77
2022/01/12 15:35:40;;;;;;;9.67;5.97;;;22.80;43.30;;;;;;5070706;28;20173;-76
2022/01/12 15:38:08;;;;;;;10.83;6.33;;;23.40;42.60;;;;;;5071443;28;20174;-77
2022/01/12 15:40:35;;;;;;;9.67;6.03;;;23.90;41.90;;;;;;5071234;28;20198;-77
2022/01/12 15:43:02;;;;;;;10.33;6.40;;;24.30;41.60;;;;;;5077766;28;20165;-77
2022/01/12 15:45:55;;;;;;;12.63;6.50;;;24.40;41.30;;;;;;5078467;28;20177;-77
2022/01/12 15:48:20;;;;;;;12.43;6.60;;;24.50;41.10;;;;;;5066230;28;20288;-77